Time;durP1;ratioP1;P1;durP2;ratioP2;P2;SDS_P1;SDS_P2;PMS_P1;PMS_P2;Temp;Humidity;BMP_temperature;BMP_pressure;BME280_temperature;BME280_humidity;BME280_pressure;Samples;Min_cycle;Max_cycle;Signal;HPM_P1;HPM_P2
2022/03/05 00:00:20;;;;;;;;;;;;;;;17.75;39.44;100817.88;5078305;28;900;-57
2022/03/05 00:02:46;;;;;;;;;;;;;;;17.49;40.00;100810.78;5078637;28;946;-57
2022/03/05 00:05:13;;;;;;;;;;;;;;;17.21;40.34;100818.56;5078428;28;1468;-57
2022/03/05 00:07:38;;;;;;;;;;;;;;;17.01;40.74;100820.22;5078760;28;777;-57
2022/03/05 00:10:04;;;;;;;;;;;;;;;16.82;41.24;100830.09;5078441;28;1917;-57
2022/03/05 00:12:30;;;;;;;;;;;;;;;16.73;41.49;100836.13;5111333;28;898;-57
2022/03/05 00:14:56;;;;;;;;;;;;;;;16.73;41.73;100833.38;5078457;28;1138;-57
2022/03/05 00:17:21;;;;;;;;;;;;;;;16.81;41.36;100820.19;5077788;28;938;-57
2022/03/05 00:19:47;;;;;;;;;;;;;;;16.84;41.36;100811.41;5078030;28;872;-57
2022/03/05 00:22:12;;;;;;;;;;;;;;;17.15;40.44;100808.66;5078507;28;834;-57
2022/03/05 00:24:37;;;;;;;;;;;;;;;17.36;40.06;100804.81;5078452;28;887;-57
2022/03/05 00:27:04;;;;;;;;;;;;;;;17.51;39.98;100809.41;5078288;28;911;-57
2022/03/05 00:29:29;;;;;;;;;;;;;;;17.51;39.84;100816.84;5076499;28;1910;-57
2022/03/05 00:31:55;;;;;;;;;;;;;;;17.24;40.12;100812.50;5077734;28;860;-57
2022/03/05 00:34:20;;;;;;;;;;;;;;;17.07;40.52;100819.13;5077894;28;1392;-57
2022/03/05 00:36:46;;;;;;;;;;;;;;;16.85;41.21;100811.13;5078250;28;744;-57
2022/03/05 00:39:11;;;;;;;;;;;;;;;16.70;41.25;100814.69;5077741;28;744;-57
2022/03/05 00:41:36;;;;;;;;;;;;;;;16.69;41.68;100813.06;5078023;28;885;-57
2022/03/05 00:44:02;;;;;;;;;;;;;;;16.87;41.13;100805.34;5077917;28;818;-58
2022/03/05 00:46:27;;;;;;;;;;;;;;;17.14;40.67;100805.09;5077438;28;1376;-58
2022/03/05 00:48:53;;;;;;;;;;;;;;;17.49;39.99;100808.88;5077694;28;1910;-57
2022/03/05 00:51:18;;;;;;;;;;;;;;;17.67;39.56;100803.88;5077902;28;776;-58
2022/03/05 00:53:44;;;;;;;;;;;;;;;17.48;39.88;100801.72;5077695;28;852;-57
2022/03/05 00:56:10;;;;;;;;;;;;;;;17.28;40.09;100802.63;5077538;28;825;-57
2022/03/05 00:58:35;;;;;;;;;;;;;;;17.14;40.32;100805.09;5077519;28;908;-57
2022/03/05 01:01:01;;;;;;;;;;;;;;;16.81;40.92;100793.53;5077508;28;817;-57
2022/03/05 01:03:26;;;;;;;;;;;;;;;16.62;42.53;100796.03;5077554;28;786;-58
2022/03/05 01:05:53;;;;;;;;;;;;;;;17.31;40.39;100793.00;5077291;28;838;-58
2022/03/05 01:08:19;;;;;;;;;;;;;;;16.84;41.03;100792.19;5077091;28;925;-58
2022/03/05 01:10:44;;;;;;;;;;;;;;;16.61;41.77;100788.88;5077074;28;1982;-58
2022/03/05 01:13:10;;;;;;;;;;;;;;;16.59;41.44;100791.91;5077131;28;837;-59
2022/03/05 01:15:35;;;;;;;;;;;;;;;16.91;41.25;100804.56;5076931;28;1067;-58
2022/03/05 01:18:00;;;;;;;;;;;;;;;18.04;38.89;100805.41;5077388;28;799;-58
2022/03/05 01:20:26;;;;;;;;;;;;;;;17.36;40.12;100799.31;5077127;28;954;-58
2022/03/05 01:22:52;;;;;;;;;;;;;;;16.99;40.08;100794.94;5076689;28;824;-58
2022/03/05 01:25:17;;;;;;;;;;;;;;;16.50;40.98;100792.72;5077153;28;848;-58
2022/03/05 01:27:43;;;;;;;;;;;;;;;17.13;40.96;100794.41;5076987;28;710;-58
2022/03/05 01:30:09;;;;;;;;;;;;;;;17.34;40.12;100787.75;5076303;28;1953;-58
2022/03/05 01:32:34;;;;;;;;;;;;;;;16.83;41.19;100785.88;5076953;28;1063;-59
2022/03/05 01:34:59;;;;;;;;;;;;;;;16.77;41.20;100790.53;5076891;28;837;-60
2022/03/05 01:37:25;;;;;;;;;;;;;;;16.49;41.21;100791.06;5076548;28;886;-59
2022/03/05 01:39:51;;;;;;;;;;;;;;;17.31;40.30;100796.56;5076988;28;836;-58
2022/03/05 01:42:20;;;;;;;;;;;;;;;17.17;40.63;100793.56;5076748;28;900;-59
2022/03/05 01:44:45;;;;;;;;;;;;;;;16.87;41.15;100794.38;5077013;28;847;-59
2022/03/05 01:47:11;;;;;;;;;;;;;;;16.76;41.43;100791.63;5076133;28;798;-60
2022/03/05 01:49:36;;;;;;;;;;;;;;;16.54;41.25;100804.81;5076247;28;1977;-59
2022/03/05 01:52:02;;;;;;;;;;;;;;;16.63;42.34;100800.41;5076393;28;750;-57
2022/03/05 01:54:27;;;;;;;;;;;;;;;17.35;40.00;100792.16;5076856;28;792;-57
2022/03/05 01:56:52;;;;;;;;;;;;;;;16.97;41.11;100786.16;5076468;28;825;-57
2022/03/05 01:59:18;;;;;;;;;;;;;;;16.56;41.56;100791.59;5076630;28;793;-57
2022/03/05 02:01:43;;;;;;;;;;;;;;;16.47;41.67;100796.81;5075100;28;906;-57
2022/03/05 02:04:09;;;;;;;;;;;;;;;16.46;42.24;100783.38;5076615;28;864;-57
2022/03/05 02:06:34;;;;;;;;;;;;;;;16.87;41.28;100791.63;5076330;28;848;-57
2022/03/05 02:09:00;;;;;;;;;;;;;;;17.40;40.20;100792.16;5076640;28;1910;-58
2022/03/05 02:11:25;;;;;;;;;;;;;;;17.76;39.17;100785.69;5076337;28;927;-58
2022/03/05 02:13:52;;;;;;;;;;;;;;;17.88;38.96;100791.69;5076248;28;978;-58
2022/03/05 02:16:18;;;;;;;;;;;;;;;17.22;40.16;100800.97;5076177;28;999;-58
2022/03/05 02:18:44;;;;;;;;;;;;;;;16.92;40.91;100795.22;5076300;28;813;-58
2022/03/05 02:21:09;;;;;;;;;;;;;;;16.75;41.24;100800.97;5076344;28;778;-58
2022/03/05 02:23:35;;;;;;;;;;;;;;;16.73;41.56;100808.66;5076595;28;842;-58
2022/03/05 02:26:03;;;;;;;;;;;;;;;16.66;41.46;100805.38;5076024;28;809;-58
2022/03/05 02:28:28;;;;;;;;;;;;;;;16.75;41.36;100798.22;5076354;28;876;-58
2022/03/05 02:30:54;;;;;;;;;;;;;;;16.77;41.55;100801.53;5075878;28;1909;-58
2022/03/05 02:33:19;;;;;;;;;;;;;;;17.04;41.04;100803.19;5076008;28;829;-58
2022/03/05 02:35:45;;;;;;;;;;;;;;;17.13;40.47;100799.91;5076198;28;732;-59
2022/03/05 02:38:14;;;;;;;;;;;;;;;17.28;40.33;100800.69;5075824;28;848;-59
2022/03/05 02:40:39;;;;;;;;;;;;;;;17.21;40.49;100796.59;5076008;28;864;-58
2022/03/05 02:43:05;;;;;;;;;;;;;;;17.08;40.79;100796.03;5075728;28;810;-58
2022/03/05 02:45:30;;;;;;;;;;;;;;;16.82;40.91;100795.19;5076088;28;817;-57
2022/03/05 02:47:56;;;;;;;;;;;;;;;16.63;41.78;100805.06;5076381;28;829;-57
2022/03/05 02:50:21;;;;;;;;;;;;;;;16.68;41.77;100802.34;5075572;28;1983;-57
2022/03/05 02:52:47;;;;;;;;;;;;;;;16.76;41.58;100799.06;5076058;28;1090;-57
2022/03/05 02:55:12;;;;;;;;;;;;;;;16.88;41.31;100788.63;5076164;28;750;-57
2022/03/05 02:57:38;;;;;;;;;;;;;;;16.94;40.98;100792.19;5075996;28;789;-57
2022/03/05 03:00:04;;;;;;;;;;;;;;;17.42;39.84;100803.69;5075804;28;817;-57
2022/03/05 03:02:29;;;;;;;;;;;;;;;17.58;39.53;100800.88;5078520;28;810;-57
2022/03/05 03:04:55;;;;;;;;;;;;;;;17.30;40.05;100796.84;5079716;28;840;-57
2022/03/05 03:07:20;;;;;;;;;;;;;;;16.81;40.96;100809.22;5079815;28;888;-57
2022/03/05 03:09:46;;;;;;;;;;;;;;;16.67;41.22;100825.41;5079559;28;1906;-57
2022/03/05 03:12:11;;;;;;;;;;;;;;;16.56;41.71;100825.41;5079693;28;888;-57
2022/03/05 03:14:37;;;;;;;;;;;;;;;16.60;41.78;100825.66;5079193;28;1117;-57
2022/03/05 03:17:02;;;;;;;;;;;;;;;16.75;41.65;100828.41;5079299;28;861;-57
2022/03/05 03:19:28;;;;;;;;;;;;;;;17.07;40.94;100819.13;5079419;28;915;-57
2022/03/05 03:21:53;;;;;;;;;;;;;;;17.50;40.02;100826.19;5079478;28;741;-57
2022/03/05 03:24:19;;;;;;;;;;;;;;;17.68;39.33;100828.34;5079770;28;861;-59
2022/03/05 03:26:45;;;;;;;;;;;;;;;17.54;39.77;100814.34;5079303;28;884;-58
2022/03/05 03:29:12;;;;;;;;;;;;;;;17.19;40.11;100823.50;5079036;28;1926;-58
2022/03/05 03:31:37;;;;;;;;;;;;;;;16.83;41.23;100828.97;5078953;28;966;-57
2022/03/05 03:34:03;;;;;;;;;;;;;;;16.74;41.43;100826.75;5079549;28;792;-59
2022/03/05 03:36:28;;;;;;;;;;;;;;;16.65;41.91;100825.69;5079265;28;741;-60
2022/03/05 03:38:53;;;;;;;;;;;;;;;16.77;41.51;100826.25;5079513;28;1416;-58
2022/03/05 03:41:19;;;;;;;;;;;;;;;16.97;41.15;100830.13;5078808;28;813;-58
2022/03/05 03:43:44;;;;;;;;;;;;;;;17.35;40.14;100829.78;5078755;28;860;-58
2022/03/05 03:46:12;;;;;;;;;;;;;;;17.42;40.12;100828.41;5079034;28;815;-58
2022/03/05 03:48:37;;;;;;;;;;;;;;;17.39;39.92;100822.63;5079013;28;785;-58
2022/03/05 03:51:03;;;;;;;;;;;;;;;17.12;40.68;100826.53;5079215;28;1902;-57
2022/03/05 03:53:28;;;;;;;;;;;;;;;16.97;40.79;100834.78;5078668;28;829;-57
2022/03/05 03:55:54;;;;;;;;;;;;;;;16.76;41.27;100849.28;5078721;28;1105;-58
2022/03/05 03:58:19;;;;;;;;;;;;;;;16.66;41.13;100845.72;5078927;28;865;-57
2022/03/05 04:00:45;;;;;;;;;;;;;;;17.35;40.41;100843.53;5078919;28;812;-58
2022/03/05 04:03:10;;;;;;;;;;;;;;;17.15;40.41;100849.88;5078728;28;750;-57
2022/03/05 04:05:36;;;;;;;;;;;;;;;16.67;41.64;100858.34;5078850;28;770;-57
2022/03/05 04:10:45;;;;;;;;;;;;;;;16.60;41.68;100861.34;5078368;28;1906;-58
2022/03/05 04:13:11;;;;;;;;;;;;;;;16.69;41.73;100867.97;5077684;28;792;-58
2022/03/05 04:15:36;;;;;;;;;;;;;;;16.75;41.42;100866.84;5078219;28;1166;-58
2022/03/05 04:18:01;;;;;;;;;;;;;;;16.86;41.42;100866.91;5078620;28;798;-57
2022/03/05 04:20:27;;;;;;;;;;;;;;;16.95;41.29;100878.19;5078117;28;901;-56
2022/03/05 04:22:52;;;;;;;;;;;;;;;17.29;40.59;100861.94;5078551;28;834;-57
2022/03/05 04:25:18;;;;;;;;;;;;;;;17.30;40.59;100866.34;5078617;28;758;-59
2022/03/05 04:27:43;;;;;;;;;;;;;;;17.35;40.47;100871.84;5078464;28;804;-59
2022/03/05 04:30:09;;;;;;;;;;;;;;;17.21;40.63;100874.34;5076424;28;1905;-57
2022/03/05 04:32:35;;;;;;;;;;;;;;;16.87;41.21;100891.34;5074060;28;1444;-57
2022/03/05 04:35:00;;;;;;;;;;;;;;;16.61;41.84;100882.22;5077092;28;1163;-58
2022/03/05 04:37:25;;;;;;;;;;;;;;;16.61;41.70;100887.72;5075958;28;1216;-58
2022/03/05 04:39:51;;;;;;;;;;;;;;;16.68;41.73;100887.47;5078243;28;726;-57
2022/03/05 04:42:16;;;;;;;;;;;;;;;16.77;41.71;100897.63;5078054;28;784;-57
2022/03/05 04:44:42;;;;;;;;;;;;;;;17.33;40.51;100893.28;5071065;28;750;-57
2022/03/05 04:47:07;;;;;;;;;;;;;;;17.57;39.80;100898.22;5077490;28;1443;-56
2022/03/05 04:49:32;;;;;;;;;;;;;;;17.72;39.32;100900.13;5078000;28;1962;-56
2022/03/05 04:51:58;;;;;;;;;;;;;;;17.27;40.06;100905.38;5077903;28;814;-56
2022/03/05 04:54:25;;;;;;;;;;;;;;;16.81;41.18;100902.59;5076902;28;1384;-56
2022/03/05 04:56:51;;;;;;;;;;;;;;;16.67;41.35;100905.84;5077461;28;885;-56
2022/03/05 04:59:16;;;;;;;;;;;;;;;16.52;42.18;100914.03;5077459;28;817;-57
2022/03/05 05:01:42;;;;;;;;;;;;;;;16.85;41.53;100900.94;5077687;28;867;-57
2022/03/05 05:04:07;;;;;;;;;;;;;;;17.17;40.77;100916.38;5077436;28;834;-59
2022/03/05 05:06:33;;;;;;;;;;;;;;;17.86;39.04;100911.38;5077373;28;781;-57
2022/03/05 05:08:58;;;;;;;;;;;;;;;17.44;39.96;100911.41;5077832;28;902;-58
2022/03/05 05:11:24;;;;;;;;;;;;;;;16.92;40.81;100918.00;5076941;28;1914;-57
2022/03/05 05:13:49;;;;;;;;;;;;;;;16.71;40.95;100917.13;5077366;28;812;-57
2022/03/05 05:16:15;;;;;;;;;;;;;;;16.50;41.72;100913.50;5076723;28;1036;-58
2022/03/05 05:19:24;;;;;;;;;;;;;;;16.96;41.02;100916.38;5077420;28;798;-57
2022/03/05 05:21:25;;;;;;;;;;;;;;;17.56;39.94;100918.59;5077264;28;1461;-57
2022/03/05 05:23:51;;;;;;;;;;;;;;;17.78;39.12;100927.34;5076870;28;861;-57
2022/03/05 05:26:16;;;;;;;;;;;;;;;17.87;39.16;100924.03;5077128;28;1009;-58
2022/03/05 05:28:42;;;;;;;;;;;;;;;17.47;39.92;100933.97;5077106;28;789;-57
2022/03/05 05:31:07;;;;;;;;;;;;;;;17.12;40.20;100930.94;5077081;28;1913;-57
2022/03/05 05:33:32;;;;;;;;;;;;;;;16.77;41.33;100927.84;5076654;28;817;-58
2022/03/05 05:35:58;;;;;;;;;;;;;;;16.64;41.34;100931.09;5076622;28;809;-58
2022/03/05 05:38:23;;;;;;;;;;;;;;;16.69;41.56;100927.53;5076760;28;821;-58
2022/03/05 05:40:49;;;;;;;;;;;;;;;16.96;41.10;100932.00;5076781;28;817;-57
2022/03/05 05:43:14;;;;;;;;;;;;;;;17.48;39.85;100939.19;5077018;28;830;-59
2022/03/05 05:45:39;;;;;;;;;;;;;;;17.89;39.16;100938.31;5076584;28;973;-58
2022/03/05 05:48:06;;;;;;;;;;;;;;;17.98;38.74;100938.59;5077015;28;816;-58
2022/03/05 05:50:31;;;;;;;;;;;;;;;17.73;39.12;100935.59;5076574;28;1909;-57
2022/03/05 05:52:57;;;;;;;;;;;;;;;17.35;39.92;100940.56;5077125;28;822;-57
2022/03/05 05:55:22;;;;;;;;;;;;;;;16.96;40.57;100940.25;5076625;28;740;-59
2022/03/05 05:57:48;;;;;;;;;;;;;;;16.67;40.94;100947.03;5077113;28;738;-57
2022/03/05 06:00:13;;;;;;;;;;;;;;;16.74;41.03;100933.84;5076616;28;887;-62
2022/03/05 06:02:40;;;;;;;;;;;;;;;16.74;41.74;100958.56;5076099;28;765;-60
2022/03/05 06:05:06;;;;;;;;;;;;;;;17.33;40.46;100964.75;5076616;28;789;-60
2022/03/05 06:07:32;;;;;;;;;;;;;;;17.52;40.13;100972.47;5076145;28;890;-60
2022/03/05 06:09:58;;;;;;;;;;;;;;;17.72;39.48;100966.13;5076527;28;1906;-61
2022/03/05 06:12:23;;;;;;;;;;;;;;;17.55;39.85;100966.41;5077103;28;779;-60
2022/03/05 06:14:48;;;;;;;;;;;;;;;17.37;40.17;100976.84;5074965;28;1166;-59
2022/03/05 06:17:14;;;;;;;;;;;;;;;17.08;40.54;100979.28;5075934;28;1344;-59
2022/03/05 06:19:39;;;;;;;;;;;;;;;16.86;40.81;100977.56;5076083;28;1059;-61
2022/03/05 06:22:05;;;;;;;;;;;;;;;16.74;41.50;100979.72;5076061;28;960;-60
2022/03/05 06:24:31;;;;;;;;;;;;;;;16.84;41.52;100974.25;5076081;28;801;-59
2022/03/05 06:26:56;;;;;;;;;;;;;;;17.61;39.48;100977.16;5076174;28;889;-59
2022/03/05 06:29:22;;;;;;;;;;;;;;;18.41;38.17;100983.88;5075554;28;1913;-59
2022/03/05 06:31:48;;;;;;;;;;;;;;;18.07;38.63;100980.94;5075432;28;1270;-59
2022/03/05 06:34:13;;;;;;;;;;;;;;;17.39;39.82;100988.41;5076084;28;793;-59
2022/03/05 06:36:38;;;;;;;;;;;;;;;17.04;40.51;100994.66;5079323;28;761;-61
2022/03/05 06:39:04;;;;;;;;;;;;;;;16.88;40.62;100985.53;5082839;28;917;-60
2022/03/05 06:41:30;;;;;;;;;;;;;;;16.56;40.87;100987.38;5082900;28;797;-60
2022/03/05 06:43:56;;;;;;;;;;;;;;;17.43;40.31;100989.50;5082507;28;818;-62
2022/03/05 06:46:21;;;;;;;;;;;;;;;16.98;40.74;100991.06;5082605;28;886;-59
2022/03/05 06:48:47;;;;;;;;;;;;;;;16.71;40.93;100991.25;5082641;28;821;-58
2022/03/05 06:51:12;;;;;;;;;;;;;;;16.50;41.44;100990.34;5082469;28;1902;-58
2022/03/05 06:53:38;;;;;;;;;;;;;;;16.84;41.31;100985.22;5082317;28;840;-57
2022/03/05 06:56:03;;;;;;;;;;;;;;;17.35;40.47;100997.44;5082230;28;861;-59
2022/03/05 06:58:29;;;;;;;;;;;;;;;17.71;39.57;101000.22;5082654;28;801;-58
2022/03/05 07:00:54;;;;;;;;;;;;;;;17.85;39.09;101003.25;5082820;28;852;-58
2022/03/05 07:03:20;;;;;;;;;;;;;;;17.48;39.46;101002.44;5082435;28;809;-59
2022/03/05 07:05:45;;;;;;;;;;;;;;;16.96;40.84;101001.53;5082261;28;773;-56
2022/03/05 07:08:10;;;;;;;;;;;;;;;16.92;41.08;100997.66;5082696;28;760;-57
2022/03/05 07:10:36;;;;;;;;;;;;;;;16.74;41.53;100997.00;5082176;28;1909;-58
2022/03/05 07:13:01;;;;;;;;;;;;;;;16.75;41.49;100995.13;5082838;28;878;-60
2022/03/05 07:15:27;;;;;;;;;;;;;;;16.84;41.17;101000.91;5081841;28;1101;-59
2022/03/05 07:17:53;;;;;;;;;;;;;;;17.09;40.85;100994.69;5081890;28;1383;-59
2022/03/05 07:20:19;;;;;;;;;;;;;;;17.63;39.63;100996.13;5082807;28;808;-57
2022/03/05 07:22:45;;;;;;;;;;;;;;;17.89;39.03;100999.69;5082228;28;1051;-60
2022/03/05 07:25:11;;;;;;;;;;;;;;;17.98;38.64;101004.63;5081854;28;865;-58
2022/03/05 07:27:37;;;;;;;;;;;;;;;17.61;39.50;101014.78;5082021;28;730;-61
2022/03/05 07:30:03;;;;;;;;;;;;;;;17.26;40.14;101002.66;5082038;28;2001;-59
2022/03/05 07:32:28;;;;;;;;;;;;;;;17.06;40.73;101014.47;5081768;28;820;-56
2022/03/05 07:34:54;;;;;;;;;;;;;;;16.81;40.27;101012.44;5081937;28;1048;-59
2022/03/05 07:37:19;;;;;;;;;;;;;;;17.03;41.07;101010.31;5081938;28;822;-59
2022/03/05 07:39:44;;;;;;;;;;;;;;;17.15;40.46;101017.50;5082093;28;785;-58
2022/03/05 07:42:10;;;;;;;;;;;;;;;17.17;40.46;101015.31;5082498;28;936;-58
2022/03/05 07:44:36;;;;;;;;;;;;;;;17.07;40.66;101016.13;5081963;28;835;-59
2022/03/05 07:47:02;;;;;;;;;;;;;;;17.02;40.74;101013.34;5079772;28;896;-58
2022/03/05 07:49:27;;;;;;;;;;;;;;;16.85;41.29;101021.78;5077722;28;1976;-59
2022/03/05 07:51:53;;;;;;;;;;;;;;;16.67;41.08;101023.09;5078708;28;880;-58
2022/03/05 07:54:18;;;;;;;;;;;;;;;17.23;40.66;101026.03;5078444;28;833;-58
2022/03/05 07:56:43;;;;;;;;;;;;;;;17.18;40.45;101022.44;5077976;28;861;-59
2022/03/05 07:59:09;;;;;;;;;;;;;;;17.00;40.69;101026.50;5078588;28;861;-58
2022/03/05 08:01:34;;;;;;;;;;;;;;;16.73;41.44;101014.59;5077874;28;867;-58
2022/03/05 08:04:00;;;;;;;;;;;;;;;16.53;41.60;101023.56;5078287;28;773;-59
2022/03/05 08:06:25;;;;;;;;;;;;;;;17.35;40.28;101016.69;5077942;28;874;-60
2022/03/05 08:08:52;;;;;;;;;;;;;;;17.19;40.56;101027.66;5077972;28;825;-59
2022/03/05 08:11:18;;;;;;;;;;;;;;;16.77;41.37;101034.94;5078786;28;1988;-59
2022/03/05 08:13:43;;;;;;;;;;;;;;;16.76;41.46;101027.78;5077919;28;832;-59
2022/03/05 08:16:09;;;;;;;;;;;;;;;16.63;41.48;101027.47;5077899;28;1140;-59
2022/03/05 08:18:34;;;;;;;;;;;;;;;17.52;39.56;101027.47;5078391;28;781;-59
2022/03/05 08:20:59;;;;;;;;;;;;;;;17.04;40.60;101033.97;5077602;28;1467;-59
2022/03/05 08:23:25;;;;;;;;;;;;;;;16.91;40.87;101023.47;5078329;28;805;-59
2022/03/05 08:25:50;;;;;;;;;;;;;;;16.53;40.42;101034.53;5077753;28;977;-56
2022/03/05 08:28:17;;;;;;;;;;;;;;;16.84;41.57;101033.84;5078542;28;786;-58
2022/03/05 08:30:43;;;;;;;;;;;;;;;16.90;41.15;101032.78;5077488;28;1913;-57
2022/03/05 08:33:08;;;;;;;;;;;;;;;16.72;41.55;101036.84;5077557;28;845;-57
2022/03/05 08:35:34;;;;;;;;;;;;;;;16.56;41.74;101027.69;5077689;28;843;-57
2022/03/05 08:37:59;;;;;;;;;;;;;;;16.41;41.69;101026.53;5077406;28;822;-56
2022/03/05 08:40:25;;;;;;;;;;;;;;;17.54;39.68;101028.00;5077319;28;1056;-58
2022/03/05 08:42:50;;;;;;;;;;;;;;;17.26;40.25;101024.66;5078184;28;781;-58
2022/03/05 08:45:16;;;;;;;;;;;;;;;16.87;40.89;101025.91;5077340;28;910;-57
2022/03/05 08:47:41;;;;;;;;;;;;;;;16.67;41.02;101036.81;5077600;28;797;-58
2022/03/05 08:50:07;;;;;;;;;;;;;;;17.28;40.65;101034.28;5077589;28;1906;-57
2022/03/05 08:52:36;;;;;;;;;;;;;;;17.71;39.09;101023.06;5077514;28;822;-57
2022/03/05 08:55:11;;;;;;;;;;;;;;;17.22;40.21;101029.03;5077426;28;854;-59
2022/03/05 08:57:37;;;;;;;;;;;;;;;17.05;40.67;101021.84;5077474;28;799;-58
2022/03/05 09:00:05;;;;;;;;;;;;;;;16.59;41.17;101027.16;5076580;28;829;-59
2022/03/05 09:02:31;;;;;;;;;;;;;;;16.92;41.42;101036.13;5076569;28;1009;-59
2022/03/05 09:04:57;;;;;;;;;;;;;;;17.43;40.04;101027.16;5077792;28;812;-59
2022/03/05 09:07:22;;;;;;;;;;;;;;;17.05;40.44;101035.59;5109346;28;833;-60
2022/03/05 09:09:48;;;;;;;;;;;;;;;16.98;40.82;101034.22;5076807;28;1906;-59
2022/03/05 09:12:13;;;;;;;;;;;;;;;16.56;41.27;101034.03;5077310;28;739;-61
2022/03/05 09:14:39;;;;;;;;;;;;;;;17.28;40.21;101033.47;5076471;28;993;-58
2022/03/05 09:17:04;;;;;;;;;;;;;;;17.10;40.64;101037.56;5076744;28;823;-58
2022/03/05 09:19:30;;;;;;;;;;;;;;;16.87;41.00;101039.66;5077192;28;896;-62
2022/03/05 09:21:55;;;;;;;;;;;;;;;16.69;41.26;101043.69;5076745;28;822;-61
2022/03/05 09:24:21;;;;;;;;;;;;;;;17.82;39.34;101036.81;5077045;28;801;-59
2022/03/05 09:26:46;;;;;;;;;;;;;;;17.65;39.43;101037.91;5077246;28;840;-60
2022/03/05 09:29:11;;;;;;;;;;;;;;;17.14;40.58;101044.16;5076585;28;792;-58
2022/03/05 09:31:39;;;;;;;;;;;;;;;17.24;40.36;101040.59;5076503;28;1967;-59
2022/03/05 09:34:04;;;;;;;;;;;;;;;17.12;40.64;101045.53;5073894;28;1225;-59
2022/03/05 09:36:31;;;;;;;;;;;;;;;17.05;40.65;101049.34;5076778;28;1246;-60
2022/03/05 09:38:56;;;;;;;;;;;;;;;17.13;40.68;101052.69;5076223;28;794;-59
2022/03/05 09:41:22;;;;;;;;;;;;;;;17.42;39.85;101056.56;5076847;28;847;-58
2022/03/05 09:43:47;;;;;;;;;;;;;;;17.55;39.67;101048.91;5076772;28;789;-59
2022/03/05 09:46:13;;;;;;;;;;;;;;;17.38;40.20;101055.47;5076138;28;912;-58
2022/03/05 09:48:39;;;;;;;;;;;;;;;17.42;40.12;101059.31;5076611;28;758;-57
2022/03/05 09:51:04;;;;;;;;;;;;;;;17.40;40.20;101056.03;5076143;28;1893;-58
2022/03/05 09:53:30;;;;;;;;;;;;;;;17.34;40.34;101054.34;5075951;28;845;-60
2022/03/05 09:55:55;;;;;;;;;;;;;;;17.32;40.29;101050.22;5076600;28;763;-58
2022/03/05 09:58:21;;;;;;;;;;;;;;;17.22;40.47;101043.63;5076402;28;743;-58
2022/03/05 10:00:47;;;;;;;;;;;;;;;17.28;40.37;101041.72;5075892;28;823;-58
2022/03/05 10:03:14;;;;;;;;;;;;;;;17.13;40.59;101048.00;5101608;28;814;-59
2022/03/05 10:05:39;;;;;;;;;;;;;;;17.37;40.08;101051.06;5076059;28;844;-59
2022/03/05 10:08:10;;;;;;;;;;;;;;;17.61;39.72;101039.53;5075920;28;772;-59
2022/03/05 10:10:41;;;;;;;;;;;;;;;17.73;39.41;101045.59;5075721;28;1898;-59
2022/03/05 10:13:22;;;;;;;;;;;;;;;17.87;39.06;101045.06;5076145;28;1097;-59
2022/03/05 10:15:48;;;;;;;;;;;;;;;18.02;38.92;101045.09;5075430;28;1068;-58
2022/03/05 10:18:13;;;;;;;;;;;;;;;18.08;38.75;101040.41;5074377;28;1088;-62
2022/03/05 10:20:48;;;;;;;;;;;;;;;18.23;38.27;101034.03;5075306;28;1107;-59
2022/03/05 10:23:14;;;;;;;;;;;;;;;18.19;38.36;101024.66;5076181;28;846;-62
2022/03/05 10:25:57;;;;;;;;;;;;;;;18.31;38.15;101022.44;5075724;28;805;-59
2022/03/05 10:28:26;;;;;;;;;;;;;;;18.39;37.83;101021.88;5075760;28;865;-62
2022/03/05 10:30:58;;;;;;;;;;;;;;;18.51;37.77;101029.00;5075551;28;1914;-62
2022/03/05 10:33:23;;;;;;;;;;;;;;;18.51;37.79;101020.72;5075676;28;850;-62
2022/03/05 10:35:49;;;;;;;;;;;;;;;18.54;37.43;101011.94;5076228;28;783;-60
2022/03/05 10:38:14;;;;;;;;;;;;;;;18.68;37.31;101023.16;5075784;28;1986;-59
2022/03/05 10:40:40;;;;;;;;;;;;;;;18.68;37.34;101015.72;5075905;28;772;-60
2022/03/05 10:43:06;;;;;;;;;;;;;;;18.61;37.52;101023.47;5075640;28;784;-59
2022/03/05 10:45:47;;;;;;;;;;;;;;;18.26;38.02;101020.53;5075727;28;882;-58
2022/03/05 10:48:23;;;;;;;;;;;;;;;17.78;39.36;101031.88;5075964;28;786;-58
2022/03/05 10:50:53;;;;;;;;;;;;;;;17.53;39.42;101015.34;5069062;28;1973;-61
2022/03/05 10:53:19;;;;;;;;;;;;;;;17.21;39.73;101020.00;5073478;28;1333;-59
2022/03/05 10:55:44;;;;;;;;;;;;;;;17.09;40.56;101017.47;5075167;28;877;-60
2022/03/05 10:58:13;;;;;;;;;;;;;;;17.85;39.74;101019.75;5069538;28;853;-60
2022/03/05 11:00:39;;;;;;;;;;;;;;;18.70;37.40;101019.00;5068860;28;937;-60
2022/03/05 11:03:04;;;;;;;;;;;;;;;18.34;38.06;101026.56;5075427;28;952;-59
2022/03/05 11:05:30;;;;;;;;;;;;;;;18.01;38.94;101023.34;5107420;28;1119;-57
2022/03/05 11:07:56;;;;;;;;;;;;;;;17.58;39.70;101021.66;5075115;28;1300;-61
2022/03/05 11:10:26;;;;;;;;;;;;;;;17.43;40.13;101027.16;5075433;28;1917;-59
2022/03/05 11:12:56;;;;;;;;;;;;;;;17.35;40.23;101025.78;5075543;28;951;-60
2022/03/05 11:15:21;;;;;;;;;;;;;;;17.48;40.29;101020.84;5075218;28;1219;-60
2022/03/05 11:17:47;;;;;;;;;;;;;;;17.53;39.83;101018.09;5076104;28;866;-59
2022/03/05 11:20:13;;;;;;;;;;;;;;;17.67;39.64;101021.97;5075049;28;884;-58
2022/03/05 11:22:39;;;;;;;;;;;;;;;17.69;39.60;101019.75;5076604;28;883;-59
2022/03/05 11:25:04;;;;;;;;;;;;;;;17.68;39.76;101020.84;5079165;28;1174;-60
2022/03/05 11:27:30;;;;;;;;;;;;;;;17.78;39.49;101009.84;5079075;28;1151;-57
2022/03/05 11:30:14;;;;;;;;;;;;;;;17.87;39.26;101021.13;5078522;28;1918;-59
2022/03/05 11:32:40;;;;;;;;;;;;;;;17.85;39.36;101012.34;5109930;28;1276;-59
2022/03/05 11:35:22;;;;;;;;;;;;;;;17.87;39.41;101015.63;5079294;28;731;-59
2022/03/05 11:37:47;;;;;;;;;;;;;;;17.81;39.55;101018.66;5074588;28;722;-58
2022/03/05 11:40:31;;;;;;;;;;;;;;;17.95;39.13;101019.78;5078547;28;1396;-61
2022/03/05 11:43:16;;;;;;;;;;;;;;;18.00;38.84;101017.00;5078366;28;861;-60
2022/03/05 11:46:05;;;;;;;;;;;;;;;18.02;39.02;101000.22;5078454;28;930;-59
2022/03/05 11:48:31;;;;;;;;;;;;;;;18.02;38.88;101003.81;5069408;28;1789;-59
2022/03/05 11:50:57;;;;;;;;;;;;;;;18.01;39.10;101001.34;5078290;28;1984;-60
2022/03/05 11:53:23;;;;;;;;;;;;;;;17.94;38.94;101007.13;5078894;28;935;-61
2022/03/05 11:55:49;;;;;;;;;;;;;;;18.04;38.81;101011.78;5078895;28;810;-57
2022/03/05 11:58:15;;;;;;;;;;;;;;;17.86;39.19;101010.41;5077881;28;853;-59
2022/03/05 12:00:49;;;;;;;;;;;;;;;17.97;38.86;101005.75;5078288;28;825;-58
2022/03/05 12:03:21;;;;;;;;;;;;;;;17.89;39.12;101012.59;5078384;28;841;-60
2022/03/05 12:05:47;;;;;;;;;;;;;;;18.06;38.70;101006.81;5078635;28;743;-60
2022/03/05 12:08:32;;;;;;;;;;;;;;;18.04;38.92;101004.34;5078636;28;813;-59
2022/03/05 12:11:10;;;;;;;;;;;;;;;18.14;38.79;100998.00;5077977;28;1913;-58
2022/03/05 12:13:40;;;;;;;;;;;;;;;18.15;38.63;101004.34;5071442;28;846;-60
2022/03/05 12:16:12;;;;;;;;;;;;;;;18.21;38.38;101005.97;5077642;28;1172;-59
2022/03/05 12:18:37;;;;;;;;;;;;;;;18.09;38.92;101015.34;5072096;28;1118;-59
2022/03/05 12:21:03;;;;;;;;;;;;;;;18.06;38.75;101021.41;5110471;28;1176;-59
2022/03/05 12:23:28;;;;;;;;;;;;;;;18.11;38.67;101023.31;5078050;28;825;-61
2022/03/05 12:25:54;;;;;;;;;;;;;;;18.06;38.95;101026.91;5078203;28;817;-60
2022/03/05 12:28:21;;;;;;;;;;;;;;;18.41;38.09;101021.59;5110760;28;785;-59
2022/03/05 12:30:46;;;;;;;;;;;;;;;18.56;37.90;101029.00;5077394;28;1913;-61
2022/03/05 12:33:15;;;;;;;;;;;;;;;18.74;37.32;101025.59;5077614;28;1134;-58
2022/03/05 12:35:41;;;;;;;;;;;;;;;18.89;37.04;101029.44;5076443;28;1088;-59
2022/03/05 12:38:06;;;;;;;;;;;;;;;18.54;37.66;101032.03;5077592;28;820;-62
2022/03/05 12:40:32;;;;;;;;;;;;;;;18.14;38.38;101028.25;5078141;28;961;-61
2022/03/05 12:42:58;;;;;;;;;;;;;;;17.70;39.49;101024.16;5077398;28;795;-60
2022/03/05 12:45:33;;;;;;;;;;;;;;;17.39;39.29;101040.63;5077488;28;839;-60
2022/03/05 12:48:00;;;;;;;;;;;;;;;17.07;39.94;101018.88;5077761;28;909;-57
2022/03/05 12:50:33;;;;;;;;;;;;;;;16.97;40.67;101038.03;5077794;28;1980;-59